Terminal Aerodrome Forecast
Issued by NWS Nashville, TN

Home | Current Version | Previous Version | Text Only | Print | Product List | Glossary On
Versions: 1 2 3 4 5 6 7 8 9 10 11 12 13 14 15 16 17 18 19 20 21 22 23 24 25 26
000
FTUS44 KOHX 271800 AAA
TAFBNA
TAF AMD
KBNA 271810Z 2718/2818 VRB06KT 3SM TSRA BR BKN035CB BKN250
      TEMPO 2718/2719 27010G25KT 1SM TSRA BKN015CB OVC025
     FM272100 18003KT P6SM BKN035
     FM281000 00000KT 3SM BR SCT003
     FM281300 00000KT P6SM BKN007
     FM281500 13004KT P6SM OVC025=

USA.gov is the U.S. government's official web portal to all federal, state and local government web resources and services.